createdAt,value
2019-01-28T00:00:17.910Z,4.42
2019-01-28T00:01:27.616Z,4.43
2019-01-28T00:02:37.599Z,4.45
2019-01-28T00:03:47.534Z,4.46
2019-01-28T00:04:57.486Z,4.38
2019-01-28T00:06:07.430Z,4.42
2019-01-28T00:07:17.384Z,4.38
2019-01-28T00:08:27.084Z,4.4
2019-01-28T00:09:37.034Z,4.43
2019-01-28T00:10:46.463Z,4.38
2019-01-28T00:11:55.654Z,4.38
2019-01-28T00:13:05.357Z,4.45
2019-01-28T00:14:15.039Z,4.42
2019-01-28T00:15:25.006Z,4.43
2019-01-28T00:16:34.954Z,4.42
2019-01-28T00:17:44.884Z,4.34
2019-01-28T00:18:54.831Z,4.4
2019-01-28T00:20:04.515Z,4.38
2019-01-28T00:21:14.202Z,4.42
2019-01-28T00:22:23.636Z,4.48
2019-01-28T00:23:33.084Z,4.38
2019-01-28T00:24:42.776Z,4.46
2019-01-28T00:25:52.208Z,4.42
2019-01-28T00:27:01.908Z,4.4
2019-01-28T00:28:11.606Z,4.45
2019-01-28T00:29:21.538Z,4.45
2019-01-28T00:30:30.970Z,4.38
2019-01-28T00:31:40.668Z,4.39
2019-01-28T00:32:50.599Z,4.45
2019-01-28T00:34:00.541Z,4.32
2019-01-28T00:35:10.468Z,4.36
2019-01-28T00:36:20.422Z,4.34
2019-01-28T00:37:30.104Z,4.36
2019-01-28T00:38:40.053Z,4.36
2019-01-28T00:39:49.478Z,4.32
2019-01-28T00:40:59.160Z,4.36
2019-01-28T00:42:08.847Z,4.38
2019-01-28T00:43:18.787Z,4.36
2019-01-28T00:44:28.729Z,4.28
2019-01-28T00:45:38.155Z,4.31
2019-01-28T00:46:48.094Z,4.36
2019-01-28T00:47:57.533Z,4.39
2019-01-28T00:49:07.469Z,4.31
2019-01-28T00:50:16.898Z,4.32
2019-01-28T00:51:26.823Z,4.38
2019-01-28T00:52:36.512Z,4.45
2019-01-28T00:53:46.198Z,4.36
2019-01-28T00:54:55.635Z,4.3
2019-01-28T00:56:05.565Z,4.34
2019-01-28T00:57:15.263Z,4.43
2019-01-28T00:58:24.945Z,4.43
2019-01-28T00:59:34.716Z,4.45
2019-01-28T01:00:44.413Z,4.43
2019-01-28T01:01:54.343Z,4.45
2019-01-28T01:03:04.049Z,4.45
2019-01-28T01:04:13.751Z,4.39
2019-01-28T01:05:23.701Z,4.38
2019-01-28T01:06:33.465Z,4.42
2019-01-28T01:07:43.433Z,4.42
2019-01-28T01:08:53.364Z,4.39
2019-01-28T01:10:03.055Z,4.39
2019-01-28T01:11:12.752Z,4.4
2019-01-28T01:12:22.466Z,4.38
2019-01-28T01:13:32.400Z,4.39
2019-01-28T01:14:42.096Z,4.4
2019-01-28T01:15:51.839Z,4.43
2019-01-28T01:17:01.795Z,4.36
2019-01-28T01:18:11.483Z,4.32
2019-01-28T01:19:21.168Z,4.32
2019-01-28T01:20:31.098Z,4.34
2019-01-28T01:21:41.043Z,4.3
2019-01-28T01:22:50.990Z,4.32
2019-01-28T01:24:00.934Z,4.27
2019-01-28T01:25:10.870Z,4.22
2019-01-28T01:26:20.808Z,4.36
2019-01-28T01:27:30.502Z,4.32
2019-01-28T01:28:40.447Z,4.25
2019-01-28T01:29:50.388Z,4.27
2019-01-28T01:31:00.065Z,4.32
2019-01-28T01:32:09.513Z,4.32
2019-01-28T01:33:19.227Z,4.27
2019-01-28T01:34:28.912Z,4.27
2019-01-28T01:35:38.841Z,4.21
2019-01-28T01:36:48.771Z,4.25
2019-01-28T01:37:58.463Z,4.25
2019-01-28T01:39:08.165Z,4.25
2019-01-28T01:40:18.105Z,4.25
2019-01-28T01:41:27.807Z,4.24
2019-01-28T01:42:37.484Z,4.27
2019-01-28T01:43:46.924Z,4.24
2019-01-28T01:44:56.853Z,4.22
2019-01-28T01:46:06.546Z,4.18
2019-01-28T01:47:16.470Z,4.22
2019-01-28T01:48:26.417Z,4.2
2019-01-28T01:49:35.608Z,4.22
2019-01-28T01:50:45.281Z,4.16
2019-01-28T01:51:54.967Z,4.25
2019-01-28T01:53:04.902Z,4.22
2019-01-28T01:54:14.591Z,4.18
2019-01-28T01:55:24.281Z,4.18
2019-01-28T01:56:33.964Z,4.2
2019-01-28T01:57:43.647Z,4.21
2019-01-28T01:58:53.579Z,4.16
2019-01-28T02:00:03.267Z,4.14
2019-01-28T02:01:13.208Z,4.18
2019-01-28T02:02:23.153Z,4.18
2019-01-28T02:03:40.735Z,4.24
2019-01-28T02:04:50.171Z,4.24
2019-01-28T02:05:59.862Z,4.2
2019-01-28T02:07:09.813Z,4.25
2019-01-28T02:08:19.757Z,4.25
2019-01-28T02:09:29.188Z,4.25
2019-01-28T02:10:38.634Z,4.28
2019-01-28T02:11:48.575Z,4.24
2019-01-28T02:12:58.283Z,4.22
2019-01-28T02:14:08.212Z,4.24
2019-01-28T02:15:17.903Z,4.2
2019-01-28T02:16:27.839Z,4.21
2019-01-28T02:17:37.789Z,4.22
2019-01-28T02:18:47.729Z,4.22
2019-01-28T02:19:57.157Z,4.22
2019-01-28T02:21:07.103Z,4.24
2019-01-28T02:22:17.029Z,4.16
2019-01-28T02:23:27.010Z,4.22
2019-01-28T02:24:36.703Z,4.16
2019-01-28T02:25:46.695Z,4.21
2019-01-28T02:26:56.639Z,4.2
2019-01-28T02:28:06.571Z,4.25
2019-01-28T02:29:16.519Z,4.21
2019-01-28T02:30:26.447Z,4.16
2019-01-28T02:31:36.400Z,4.16
2019-01-28T02:32:46.121Z,4.2
2019-01-28T02:33:55.837Z,4.22
2019-01-28T02:35:05.790Z,4.14
2019-01-28T02:36:15.487Z,4.18
2019-01-28T02:37:25.452Z,4.21
2019-01-28T02:38:35.381Z,4.2
2019-01-28T02:39:45.328Z,4.18
2019-01-28T02:40:55.292Z,4.21
2019-01-28T02:42:05.228Z,4.21
2019-01-28T02:43:14.912Z,4.18
2019-01-28T02:44:24.863Z,4.18
2019-01-28T02:45:34.542Z,4.21
2019-01-28T02:46:44.481Z,4.21
2019-01-28T02:47:54.417Z,4.22
2019-01-28T02:49:04.559Z,4.18
2019-01-28T02:50:14.254Z,4.18
2019-01-28T02:51:24.195Z,4.21
2019-01-28T02:52:34.141Z,4.18
2019-01-28T02:53:44.090Z,4.21
2019-01-28T02:54:54.031Z,4.27
2019-01-28T02:56:03.979Z,4.21
2019-01-28T02:57:13.915Z,4.18
2019-01-28T02:58:23.615Z,4.13
2019-01-28T02:59:33.311Z,4.18
2019-01-28T03:00:42.747Z,4.14
2019-01-28T03:01:52.689Z,4.21
2019-01-28T03:03:04.437Z,4.12
2019-01-28T03:04:13.865Z,4.2
2019-01-28T03:05:23.842Z,4.16
2019-01-28T03:06:33.535Z,4.16
2019-01-28T03:07:43.219Z,4.14
2019-01-28T03:08:53.165Z,4.12
2019-01-28T03:10:02.847Z,4.14
2019-01-28T03:11:12.958Z,4.18
2019-01-28T03:12:22.912Z,4.09
2019-01-28T03:13:32.852Z,4.13
2019-01-28T03:14:42.561Z,4.04
2019-01-28T03:15:52.247Z,4
2019-01-28T03:17:01.948Z,3.99
2019-01-28T03:18:11.657Z,4.07
2019-01-28T03:19:21.356Z,4.12
2019-01-28T03:20:31.307Z,4.12
2019-01-28T03:21:41.251Z,4
2019-01-28T03:22:50.948Z,4.09
2019-01-28T03:24:00.642Z,4.04
2019-01-28T03:25:10.594Z,4.04
2019-01-28T03:26:20.283Z,3.96
2019-01-28T03:27:29.964Z,3.95
2019-01-28T03:28:39.905Z,3.94
2019-01-28T03:29:49.843Z,3.91
2019-01-28T03:30:59.556Z,3.95
2019-01-28T03:32:09.563Z,3.99
2019-01-28T03:33:19.372Z,3.92
2019-01-28T03:34:28.836Z,3.86
2019-01-28T03:35:38.781Z,3.82
2019-01-28T03:36:48.715Z,3.82
2019-01-28T03:37:58.145Z,3.84
2019-01-28T03:39:08.098Z,3.78
2019-01-28T03:40:17.824Z,3.82
2019-01-28T03:41:27.822Z,3.77
2019-01-28T03:42:37.529Z,3.92
2019-01-28T03:43:47.227Z,3.82
2019-01-28T03:44:56.680Z,3.89
2019-01-28T03:46:06.633Z,3.81
2019-01-28T03:47:17.277Z,3.74
2019-01-28T03:48:27.220Z,3.88
2019-01-28T03:49:37.166Z,3.84
2019-01-28T03:50:47.135Z,3.77
2019-01-28T03:51:56.829Z,3.77
2019-01-28T03:53:05.789Z,3.86
2019-01-28T03:54:15.237Z,3.84
2019-01-28T03:55:24.942Z,3.71
2019-01-28T03:56:34.888Z,3.7
2019-01-28T03:57:44.851Z,3.67
2019-01-28T03:58:54.292Z,3.71
2019-01-28T04:00:04.227Z,3.68
2019-01-28T04:01:14.168Z,3.67
2019-01-28T04:02:23.861Z,3.63
2019-01-28T04:03:33.573Z,3.66
2019-01-28T04:04:43.532Z,3.59
2019-01-28T04:05:53.220Z,3.59
2019-01-28T04:07:02.706Z,3.58
2019-01-28T04:08:12.644Z,3.5
2019-01-28T04:09:22.586Z,3.48
2019-01-28T04:10:32.518Z,3.49
2019-01-28T04:11:42.244Z,3.46
2019-01-28T04:12:52.197Z,3.41
2019-01-28T04:14:01.894Z,3.52
2019-01-28T04:15:11.845Z,3.52
2019-01-28T04:16:21.533Z,3.49
2019-01-28T04:17:31.479Z,3.5
2019-01-28T04:18:41.189Z,3.5
2019-01-28T04:19:51.124Z,3.49
2019-01-28T04:21:01.129Z,3.53
2019-01-28T04:22:10.822Z,3.5
2019-01-28T04:23:20.262Z,3.49
2019-01-28T04:24:29.524Z,3.46
2019-01-28T04:25:39.487Z,3.46
2019-01-28T04:26:49.170Z,3.52
2019-01-28T04:27:58.862Z,3.5
2019-01-28T04:29:08.822Z,3.46
2019-01-28T04:30:18.510Z,3.46
2019-01-28T04:31:28.452Z,3.48
2019-01-28T04:32:38.149Z,3.46
2019-01-28T04:33:47.573Z,3.52
2019-01-28T04:34:57.266Z,3.4
2019-01-28T04:36:07.229Z,3.34
2019-01-28T04:37:17.197Z,3.41
2019-01-28T04:38:27.142Z,3.3
2019-01-28T04:39:36.828Z,3.3
2019-01-28T04:40:46.520Z,3.15
2019-01-28T04:41:56.456Z,3.26
2019-01-28T04:43:06.399Z,3.27
2019-01-28T04:44:17.843Z,3.12
2019-01-28T04:45:28.040Z,3.09
2019-01-28T04:46:37.742Z,3.05
2019-01-28T04:47:47.689Z,3.09
2019-01-28T04:48:57.636Z,3.09
2019-01-28T04:50:07.567Z,3.09
2019-01-28T04:51:17.284Z,3.05
2019-01-28T04:52:27.260Z,3.01
2019-01-28T04:53:37.153Z,2.97
2019-01-28T04:54:47.094Z,2.93
2019-01-28T04:55:57.036Z,2.95
2019-01-28T04:57:06.724Z,2.93
2019-01-28T04:58:16.416Z,2.98
2019-01-28T04:59:26.098Z,3.01
2019-01-28T05:00:36.047Z,3.01
2019-01-28T05:01:45.758Z,3.05
2019-01-28T05:02:55.196Z,2.94
2019-01-28T05:04:04.904Z,2.98
2019-01-28T05:05:14.843Z,2.93
2019-01-28T05:06:24.794Z,2.88
2019-01-28T05:07:34.485Z,2.82
2019-01-28T05:08:43.920Z,2.85
2019-01-28T05:09:53.895Z,2.83
2019-01-28T05:11:03.864Z,2.83
2019-01-28T05:12:13.804Z,2.87
2019-01-28T05:13:23.240Z,2.82
2019-01-28T05:14:33.174Z,2.73
2019-01-28T05:15:42.633Z,2.72
2019-01-28T05:16:52.335Z,2.83
2019-01-28T05:18:02.022Z,2.76
2019-01-28T05:19:11.964Z,2.73
2019-01-28T05:20:21.904Z,2.77
2019-01-28T05:21:31.887Z,2.73
2019-01-28T05:22:41.840Z,2.77
2019-01-28T05:23:51.783Z,2.85
2019-01-28T05:25:01.729Z,2.79
2019-01-28T05:26:11.206Z,2.87
2019-01-28T05:27:21.285Z,2.73
2019-01-28T05:28:31.212Z,2.8
2019-01-28T05:29:40.658Z,2.82
2019-01-28T05:30:50.588Z,2.85
2019-01-28T05:32:00.529Z,2.85
2019-01-28T05:33:11.198Z,2.85
2019-01-28T05:34:20.889Z,2.8
2019-01-28T05:35:30.592Z,2.8
2019-01-28T05:36:40.273Z,2.8
2019-01-28T05:37:50.335Z,2.76
2019-01-28T05:39:00.307Z,2.75
2019-01-28T05:40:10.235Z,2.76
2019-01-28T05:41:20.164Z,2.85
2019-01-28T05:42:30.116Z,2.8
2019-01-28T05:43:39.811Z,2.76
2019-01-28T05:44:50.156Z,2.8
2019-01-28T05:46:00.176Z,2.88
2019-01-28T05:47:09.894Z,2.83
2019-01-28T05:48:19.828Z,2.8
2019-01-28T05:49:29.503Z,2.72
2019-01-28T05:50:39.447Z,2.77
2019-01-28T05:51:49.396Z,2.7
2019-01-28T05:52:59.136Z,2.65
2019-01-28T05:54:09.065Z,2.68
2019-01-28T05:55:18.763Z,2.64
2019-01-28T05:56:28.700Z,2.64
2019-01-28T05:57:38.165Z,2.55
2019-01-28T05:58:48.131Z,2.51
2019-01-28T05:59:58.063Z,2.47
2019-01-28T06:01:07.795Z,2.5
2019-01-28T06:02:17.477Z,2.4
2019-01-28T06:03:27.175Z,2.37
2019-01-28T06:04:37.144Z,2.37
2019-01-28T06:05:46.857Z,2.37
2019-01-28T06:06:56.823Z,2.36
2019-01-28T06:08:07.900Z,2.33
2019-01-28T06:09:17.865Z,2.28
2019-01-28T06:10:27.552Z,2.46
2019-01-28T06:11:37.244Z,2.44
2019-01-28T06:12:47.200Z,2.32
2019-01-28T06:13:56.641Z,2.41
2019-01-28T06:15:06.080Z,2.34
2019-01-28T06:16:15.780Z,2.32
2019-01-28T06:17:25.214Z,2.33
2019-01-28T06:18:35.174Z,2.32
2019-01-28T06:19:44.858Z,2.32
2019-01-28T06:20:54.556Z,2.33
2019-01-28T06:22:04.243Z,2.26
2019-01-28T06:23:14.189Z,2.23
2019-01-28T06:24:24.132Z,2.22
2019-01-28T06:25:34.085Z,2.28
2019-01-28T06:26:43.259Z,2.25
2019-01-28T06:27:53.209Z,2.23
2019-01-28T06:29:03.160Z,2.22
2019-01-28T06:30:13.111Z,2.12
2019-01-28T06:31:22.786Z,2.15
2019-01-28T06:32:32.720Z,2.19
2019-01-28T06:33:42.683Z,2.15
2019-01-28T06:34:52.647Z,2.03
2019-01-28T06:36:02.580Z,2.03
2019-01-28T06:37:12.536Z,2.04
2019-01-28T06:38:22.519Z,2.05
2019-01-28T06:39:32.198Z,2.04
2019-01-28T06:40:42.435Z,2.04
2019-01-28T06:41:52.143Z,2.05
2019-01-28T06:43:02.072Z,2.07
2019-01-28T06:44:11.755Z,2.05
2019-01-28T06:45:21.689Z,2
2019-01-28T06:46:31.397Z,2.08
2019-01-28T06:47:49.019Z,1.88
2019-01-28T06:48:58.707Z,2.03
2019-01-28T06:50:08.411Z,2
2019-01-28T06:51:18.365Z,1.98
2019-01-28T06:52:28.323Z,1.97
2019-01-28T06:53:37.784Z,1.93
2019-01-28T06:54:47.713Z,2.04
2019-01-28T06:55:57.415Z,1.98
2019-01-28T06:57:07.352Z,1.97
2019-01-28T06:58:17.034Z,2
2019-01-28T06:59:26.483Z,1.95
2019-01-28T07:00:36.171Z,2
2019-01-28T07:01:46.108Z,2
2019-01-28T07:02:57.875Z,1.92
2019-01-28T07:04:07.849Z,1.95
2019-01-28T07:05:17.278Z,1.93
2019-01-28T07:06:26.973Z,1.93
2019-01-28T07:07:36.915Z,1.88
2019-01-28T07:08:46.607Z,1.88
2019-01-28T07:09:56.354Z,1.95
2019-01-28T07:11:06.377Z,1.88
2019-01-28T07:12:16.319Z,1.95
2019-01-28T07:13:26.266Z,1.88
2019-01-28T07:14:36.210Z,1.88
2019-01-28T07:15:46.185Z,1.89
2019-01-28T07:16:56.120Z,1.92
2019-01-28T07:18:05.606Z,1.82
2019-01-28T07:19:15.557Z,1.79
2019-01-28T07:20:25.509Z,1.88
2019-01-28T07:21:35.526Z,1.84
2019-01-28T07:22:45.474Z,1.89
2019-01-28T07:23:55.435Z,1.89
2019-01-28T07:25:05.454Z,1.89
2019-01-28T07:26:15.397Z,1.88
2019-01-28T07:27:25.101Z,1.88
2019-01-28T07:28:35.057Z,1.92
2019-01-28T07:29:44.987Z,1.81
2019-01-28T07:30:54.940Z,1.81
2019-01-28T07:32:04.982Z,1.86
2019-01-28T07:33:14.671Z,1.85
2019-01-28T07:34:24.609Z,1.95
2019-01-28T07:35:34.551Z,1.81
2019-01-28T07:36:44.252Z,1.81
2019-01-28T07:37:54.186Z,1.71
2019-01-28T07:39:05.418Z,1.79
2019-01-28T07:40:15.125Z,1.76
2019-01-28T07:41:25.083Z,1.93
2019-01-28T07:42:35.045Z,1.93
2019-01-28T07:43:44.740Z,1.92
2019-01-28T07:44:54.730Z,1.93
2019-01-28T07:46:04.663Z,1.97
2019-01-28T07:47:14.375Z,1.93
2019-01-28T07:48:24.303Z,1.88
2019-01-28T07:49:33.741Z,1.85
2019-01-28T07:50:43.443Z,1.93
2019-01-28T07:51:53.458Z,1.97
2019-01-28T07:53:03.416Z,2.01
2019-01-28T07:54:13.366Z,1.88
2019-01-28T07:55:23.064Z,1.93
2019-01-28T07:56:32.828Z,1.98
2019-01-28T07:57:42.781Z,1.95
2019-01-28T07:58:52.460Z,1.95
2019-01-28T08:00:02.419Z,2
2019-01-28T08:01:12.347Z,2.03
2019-01-28T08:02:22.043Z,1.95
2019-01-28T08:03:32.023Z,1.97
2019-01-28T08:04:41.721Z,1.93
2019-01-28T08:05:51.411Z,1.86
2019-01-28T08:07:04.115Z,1.98
2019-01-28T08:08:14.058Z,2.07
2019-01-28T08:09:23.749Z,2.07
2019-01-28T08:10:33.984Z,2.07
2019-01-28T08:11:43.963Z,2.28
2019-01-28T08:12:53.393Z,2.23
2019-01-28T08:14:03.139Z,2.21
2019-01-28T08:15:13.100Z,2.26
2019-01-28T08:16:22.827Z,2.4
2019-01-28T08:17:32.529Z,2.39
2019-01-28T08:18:42.472Z,2.46
2019-01-28T08:19:52.487Z,2.43
2019-01-28T08:21:02.435Z,2.51
2019-01-28T08:22:12.585Z,2.64
2019-01-28T08:23:22.079Z,2.73
2019-01-28T08:24:31.885Z,2.85
2019-01-28T08:25:41.911Z,2.97
2019-01-28T08:26:51.881Z,2.95
2019-01-28T08:28:01.836Z,3.06
2019-01-28T08:29:11.791Z,3.06
2019-01-28T08:30:21.814Z,3.16
2019-01-28T08:31:31.533Z,3.34
2019-01-28T08:32:41.223Z,3.33
2019-01-28T08:33:51.191Z,3.33
2019-01-28T08:35:00.886Z,3.45
2019-01-28T08:36:10.834Z,3.49
2019-01-28T08:37:20.538Z,3.7
2019-01-28T08:38:30.479Z,3.67
2019-01-28T08:39:40.442Z,3.76
2019-01-28T08:40:50.650Z,3.84
2019-01-28T08:42:00.698Z,3.67
2019-01-28T08:43:10.649Z,3.89
2019-01-28T08:44:22.053Z,3.91
2019-01-28T08:45:32.011Z,3.85
2019-01-28T08:46:41.712Z,3.86
2019-01-28T08:47:51.665Z,3.81
2019-01-28T08:49:01.886Z,3.82
2019-01-28T08:50:11.845Z,3.95
2019-01-28T08:51:21.881Z,3.99
2019-01-28T08:52:31.587Z,4.09
2019-01-28T08:53:41.615Z,4.27
2019-01-28T08:54:51.607Z,4.27
2019-01-28T08:56:01.051Z,4.32
2019-01-28T08:57:10.987Z,4.43
2019-01-28T08:58:20.936Z,4.34
2019-01-28T08:59:30.885Z,4.42
2019-01-28T09:00:40.822Z,4.38
2019-01-28T09:01:50.763Z,4.45
2019-01-28T09:03:00.706Z,4.53
2019-01-28T09:04:10.686Z,4.57
2019-01-28T09:05:22.252Z,4.63
2019-01-28T09:06:31.921Z,4.66
2019-01-28T09:07:41.935Z,4.83
2019-01-28T09:08:51.902Z,4.82
2019-01-28T09:10:01.664Z,4.74
2019-01-28T09:11:11.377Z,4.7
2019-01-28T09:12:21.354Z,4.83
2019-01-28T09:13:31.302Z,4.64
2019-01-28T09:14:41.023Z,4.61
2019-01-28T09:15:50.717Z,4.67
2019-01-28T09:17:00.692Z,4.74
2019-01-28T09:18:10.898Z,4.68
2019-01-28T09:19:20.622Z,4.71
2019-01-28T09:20:30.578Z,4.68
2019-01-28T09:21:40.526Z,4.89
2019-01-28T09:22:50.244Z,4.74
2019-01-28T09:23:59.721Z,4.66
2019-01-28T09:25:09.856Z,4.82
2019-01-28T09:26:19.874Z,4.98
2019-01-28T09:27:29.833Z,5.16
2019-01-28T09:28:39.772Z,5.44
2019-01-28T09:29:49.708Z,5.65
2019-01-28T09:30:59.645Z,5.76
2019-01-28T09:32:09.590Z,5.7
2019-01-28T09:33:19.335Z,5.8
2019-01-28T09:34:29.019Z,5.83
2019-01-28T09:35:38.968Z,5.95
2019-01-28T09:36:48.921Z,5.9
2019-01-28T09:37:58.877Z,5.88
2019-01-28T09:39:08.572Z,6.06
2019-01-28T09:40:18.271Z,6.07
2019-01-28T09:41:28.212Z,6.12
2019-01-28T09:42:43.149Z,6.05
2019-01-28T09:43:52.843Z,6.1
2019-01-28T09:45:02.806Z,6.13
2019-01-28T09:46:12.743Z,6.13
2019-01-28T09:47:22.698Z,6.15
2019-01-28T09:48:39.103Z,6.19
2019-01-28T09:49:49.067Z,6.15
2019-01-28T09:50:59.018Z,6.31
2019-01-28T09:52:08.997Z,6.16
2019-01-28T09:53:18.693Z,6.16
2019-01-28T09:54:28.662Z,6.25
2019-01-28T09:55:38.607Z,6.36
2019-01-28T09:56:48.589Z,6.54
2019-01-28T09:57:58.541Z,6.34
2019-01-28T09:59:08.242Z,6.34
2019-01-28T10:00:18.225Z,6.17
2019-01-28T10:01:28.159Z,6.15
2019-01-28T10:02:37.912Z,6.16
2019-01-28T10:03:47.896Z,6.16
2019-01-28T10:04:57.846Z,6.12
2019-01-28T10:06:07.414Z,6.07
2019-01-28T10:07:17.116Z,6.13
2019-01-28T10:08:27.092Z,6.01
2019-01-28T10:09:36.818Z,5.98
2019-01-28T10:10:46.762Z,5.81
2019-01-28T10:11:56.726Z,5.94
2019-01-28T10:13:06.732Z,6.01
2019-01-28T10:14:16.679Z,6.06
2019-01-28T10:15:31.298Z,6.16
2019-01-28T10:16:40.730Z,6.06
2019-01-28T10:17:50.430Z,6.13
2019-01-28T10:19:00.844Z,6.26
2019-01-28T10:20:10.580Z,6.44
2019-01-28T10:21:20.535Z,6.67
2019-01-28T10:22:29.989Z,6.8
2019-01-28T10:23:39.686Z,6.62
2019-01-28T10:24:48.888Z,6.7
2019-01-28T10:26:02.617Z,6.83
2019-01-28T10:27:12.564Z,6.71
2019-01-28T10:28:22.562Z,6.87
2019-01-28T10:29:32.266Z,6.8
2019-01-28T10:30:42.013Z,6.59
2019-01-28T10:31:51.994Z,6.71
2019-01-28T10:33:01.935Z,6.92
2019-01-28T10:34:18.545Z,6.97
2019-01-28T10:35:28.511Z,7.14
2019-01-28T10:36:39.115Z,7.32
2019-01-28T10:37:49.076Z,7.32
2019-01-28T10:38:58.772Z,7.04
2019-01-28T10:40:09.566Z,6.96
2019-01-28T10:41:19.295Z,6.78
2019-01-28T10:42:29.265Z,6.59
2019-01-28T10:43:38.990Z,6.59
2019-01-28T10:44:48.984Z,6.67
2019-01-28T10:45:58.704Z,6.74
2019-01-28T10:47:08.687Z,6.85
2019-01-28T10:48:18.139Z,6.83
2019-01-28T10:49:28.102Z,6.89
2019-01-28T10:50:38.090Z,6.85
2019-01-28T10:51:48.110Z,6.95
2019-01-28T10:52:57.878Z,6.95
2019-01-28T10:54:07.842Z,7.18
2019-01-28T10:55:17.553Z,7.31
2019-01-28T10:56:27.539Z,7.21
2019-01-28T10:57:37.512Z,7.36
2019-01-28T10:58:47.234Z,7.47
2019-01-28T10:59:57.191Z,7.46
2019-01-28T11:01:07.163Z,7.58
2019-01-28T11:02:16.862Z,7.61
2019-01-28T11:03:26.808Z,7.77
2019-01-28T11:04:36.762Z,7.77
2019-01-28T11:05:46.472Z,7.58
2019-01-28T11:06:56.420Z,7.55
2019-01-28T11:08:06.146Z,7.59
2019-01-28T11:09:16.244Z,7.61
2019-01-28T11:10:26.133Z,7.74
2019-01-28T11:11:36.334Z,7.61
2019-01-28T11:12:47.948Z,7.21
2019-01-28T11:13:58.109Z,7.01
2019-01-28T11:15:08.148Z,6.89
2019-01-28T11:16:18.348Z,6.57
2019-01-28T11:17:28.631Z,6.36
2019-01-28T11:18:38.700Z,6.34
2019-01-28T11:19:48.718Z,6.29
2019-01-28T11:20:59.041Z,6.15
2019-01-28T11:22:09.405Z,6.12
2019-01-28T11:23:19.606Z,6.16
2019-01-28T11:24:29.889Z,6.09
2019-01-28T11:25:39.746Z,6.07
2019-01-28T11:26:50.145Z,6.12
2019-01-28T11:28:00.004Z,6.35
2019-01-28T11:29:10.170Z,6.43
2019-01-28T11:30:20.376Z,6.39
2019-01-28T11:31:30.342Z,6.59
2019-01-28T11:32:40.689Z,6.56
2019-01-28T11:33:50.809Z,6.72
2019-01-28T11:35:01.092Z,6.86
2019-01-28T11:36:11.380Z,7.05
2019-01-28T11:37:21.579Z,7.18
2019-01-28T11:38:31.899Z,7.18
2019-01-28T11:39:42.209Z,7.19
2019-01-28T11:40:52.250Z,6.93
2019-01-28T11:42:02.553Z,6.68
2019-01-28T11:43:12.888Z,6.54
2019-01-28T11:44:22.666Z,6.28
2019-01-28T11:45:32.947Z,6.16
2019-01-28T11:46:43.429Z,6.19
2019-01-28T11:47:54.045Z,6.07
2019-01-28T11:49:11.021Z,5.99
2019-01-28T11:50:21.157Z,6.26
2019-01-28T11:51:31.115Z,6.29
2019-01-28T11:52:40.794Z,6.38
2019-01-28T11:53:50.488Z,6.49
2019-01-28T11:55:00.432Z,6.56
2019-01-28T11:56:09.891Z,6.54
2019-01-28T11:57:19.848Z,6.38
2019-01-28T11:58:29.810Z,6.39
2019-01-28T11:59:39.768Z,6.35
2019-01-28T12:00:49.713Z,6.31
2019-01-28T12:01:59.683Z,6.07
2019-01-28T12:03:09.635Z,6.02
2019-01-28T12:04:21.528Z,6.06
2019-01-28T12:05:30.990Z,5.95
2019-01-28T12:06:40.456Z,5.79
2019-01-28T12:07:50.154Z,5.8
2019-01-28T12:08:59.851Z,5.79
2019-01-28T12:10:09.557Z,5.74
2019-01-28T12:11:19.241Z,5.76
2019-01-28T12:12:28.930Z,5.7
2019-01-28T12:13:38.640Z,5.69
2019-01-28T12:14:48.338Z,5.7
2019-01-28T12:15:58.039Z,5.69
2019-01-28T12:17:07.990Z,5.67
2019-01-28T12:18:17.445Z,5.64
2019-01-28T12:19:26.654Z,5.69
2019-01-28T12:20:36.602Z,5.72
2019-01-28T12:21:46.304Z,5.62
2019-01-28T12:22:56.256Z,5.74
2019-01-28T12:24:05.953Z,5.73
2019-01-28T12:25:15.651Z,5.8
2019-01-28T12:26:25.663Z,5.79
2019-01-28T12:27:35.828Z,5.7
2019-01-28T12:28:45.804Z,5.77
2019-01-28T12:29:55.507Z,5.77
2019-01-28T12:31:05.494Z,5.81
2019-01-28T12:32:15.195Z,5.81
2019-01-28T12:33:25.149Z,5.9
2019-01-28T12:34:39.403Z,5.9
2019-01-28T12:35:49.216Z,5.95
2019-01-28T12:36:58.962Z,6.09
2019-01-28T12:38:08.926Z,6.06
2019-01-28T12:39:18.935Z,6.19
2019-01-28T12:40:28.911Z,6.29
2019-01-28T12:41:38.863Z,6.28
2019-01-28T12:42:48.309Z,6.56
2019-01-28T12:44:00.224Z,6.57
2019-01-28T12:45:10.154Z,6.68
2019-01-28T12:46:20.094Z,6.68
2019-01-28T12:47:29.808Z,6.85
2019-01-28T12:48:39.254Z,6.62
2019-01-28T12:49:48.713Z,6.59
2019-01-28T12:50:58.435Z,6.46
2019-01-28T12:52:08.416Z,6.47
2019-01-28T12:53:18.494Z,6.36
2019-01-28T12:54:28.239Z,6.29
2019-01-28T12:55:38.861Z,6.17
2019-01-28T12:56:48.808Z,6.19
2019-01-28T12:57:58.277Z,6.16
2019-01-28T12:59:13.884Z,6.31
2019-01-28T13:00:23.847Z,6.26
2019-01-28T13:01:33.558Z,6.29
2019-01-28T13:02:43.508Z,6.2
2019-01-28T13:03:53.441Z,6.13
2019-01-28T13:05:03.144Z,6.15
2019-01-28T13:06:13.094Z,6.09
2019-01-28T13:07:23.050Z,6.12
2019-01-28T13:08:32.761Z,6.09
2019-01-28T13:09:42.719Z,6.09
2019-01-28T13:10:51.917Z,6.09
2019-01-28T13:12:01.633Z,6.09
2019-01-28T13:13:11.363Z,6.06
2019-01-28T13:14:21.117Z,6.09
2019-01-28T13:15:30.855Z,6.15
2019-01-28T13:16:40.549Z,6.17
2019-01-28T13:17:50.254Z,6.16
2019-01-28T13:18:59.959Z,6.13
2019-01-28T13:20:09.903Z,6.17
2019-01-28T13:21:19.615Z,6.12
2019-01-28T13:22:29.576Z,6.15
2019-01-28T13:23:39.513Z,6.19
2019-01-28T13:24:50.373Z,6.15
2019-01-28T13:26:00.321Z,6.15
2019-01-28T13:27:10.034Z,6.13
2019-01-28T13:28:19.987Z,5.98
2019-01-28T13:29:29.793Z,6.06
2019-01-28T13:30:39.746Z,6.01
2019-01-28T13:31:49.719Z,5.98
2019-01-28T13:32:59.431Z,5.98
2019-01-28T13:34:09.406Z,6.06
2019-01-28T13:35:19.359Z,6.05
2019-01-28T13:36:28.808Z,6.01
2019-01-28T13:37:38.765Z,5.98
2019-01-28T13:38:48.756Z,6.06
2019-01-28T13:39:58.713Z,5.91
2019-01-28T13:41:08.700Z,5.99
2019-01-28T13:42:18.427Z,5.95
2019-01-28T13:43:28.135Z,5.87
2019-01-28T13:44:38.083Z,5.9
2019-01-28T13:45:48.039Z,5.8
2019-01-28T13:46:57.991Z,5.88
2019-01-28T13:48:07.958Z,5.84
2019-01-28T13:49:17.396Z,5.88
2019-01-28T13:50:27.340Z,5.8
2019-01-28T13:51:37.068Z,5.84
2019-01-28T13:52:46.779Z,5.83
2019-01-28T13:53:56.726Z,5.91
2019-01-28T13:55:06.686Z,5.87
2019-01-28T13:56:16.639Z,5.88
2019-01-28T13:57:26.360Z,5.83
2019-01-28T13:58:36.306Z,5.91
2019-01-28T13:59:46.255Z,5.81
2019-01-28T14:00:56.195Z,5.81
2019-01-28T14:02:06.176Z,5.81
2019-01-28T14:03:15.870Z,5.83
2019-01-28T14:04:25.813Z,5.84
2019-01-28T14:05:35.535Z,5.84
2019-01-28T14:06:45.325Z,5.87
2019-01-28T14:07:55.268Z,5.9
2019-01-28T14:09:04.721Z,5.92
2019-01-28T14:10:14.673Z,5.9
2019-01-28T14:11:24.619Z,5.95
2019-01-28T14:12:34.581Z,5.95
2019-01-28T14:13:44.529Z,5.95
2019-01-28T14:14:54.487Z,5.95
2019-01-28T14:16:04.194Z,5.94
2019-01-28T14:17:13.889Z,5.91
2019-01-28T14:18:24.066Z,5.95
2019-01-28T14:19:34.014Z,5.88
2019-01-28T14:20:55.873Z,5.9
2019-01-28T14:22:05.812Z,5.88
2019-01-28T14:23:15.516Z,5.84
2019-01-28T14:24:25.477Z,5.84
2019-01-28T14:25:35.439Z,5.81
2019-01-28T14:26:45.417Z,5.81
2019-01-28T14:27:55.113Z,5.84
2019-01-28T14:29:05.072Z,5.81
2019-01-28T14:30:15.053Z,5.8
2019-01-28T14:31:25.005Z,5.73
2019-01-28T14:32:34.938Z,5.69
2019-01-28T14:33:44.384Z,5.69
2019-01-28T14:34:54.026Z,5.69
2019-01-28T14:36:03.709Z,5.74
2019-01-28T14:37:13.709Z,5.8
2019-01-28T14:38:23.184Z,5.62
2019-01-28T14:39:33.129Z,5.69
2019-01-28T14:40:42.838Z,5.65
2019-01-28T14:41:52.803Z,5.69
2019-01-28T14:43:02.493Z,5.69
2019-01-28T14:44:13.514Z,5.69
2019-01-28T14:45:23.563Z,5.69
2019-01-28T14:46:33.017Z,5.69
2019-01-28T14:47:42.676Z,5.7
2019-01-28T14:48:53.967Z,5.67
2019-01-28T14:50:03.685Z,5.61
2019-01-28T14:51:13.661Z,5.69
2019-01-28T14:52:23.626Z,5.56
2019-01-28T14:53:33.886Z,5.59
2019-01-28T14:54:43.834Z,5.7
2019-01-28T14:55:53.789Z,5.59
2019-01-28T14:57:03.787Z,5.59
2019-01-28T14:58:18.951Z,5.58
2019-01-28T14:59:28.631Z,5.56
2019-01-28T15:00:38.580Z,5.55
2019-01-28T15:01:48.524Z,5.52
2019-01-28T15:02:58.229Z,5.55
2019-01-28T15:04:12.237Z,5.56
2019-01-28T15:05:21.944Z,5.4
2019-01-28T15:06:31.883Z,5.46
2019-01-28T15:07:42.461Z,5.4
2019-01-28T15:08:52.346Z,5.44
2019-01-28T15:10:02.113Z,5.49
2019-01-28T15:11:12.053Z,5.43
2019-01-28T15:12:22.007Z,5.46
2019-01-28T15:13:31.971Z,5.43
2019-01-28T15:14:41.927Z,5.36
2019-01-28T15:15:51.353Z,5.38
2019-01-28T15:17:01.353Z,5.4
2019-01-28T15:18:11.046Z,5.37
2019-01-28T15:19:20.989Z,5.43
2019-01-28T15:20:30.691Z,5.41
2019-01-28T15:21:40.618Z,5.41
2019-01-28T15:22:50.554Z,5.37
2019-01-28T15:24:00.501Z,5.29
2019-01-28T15:25:10.205Z,5.33
2019-01-28T15:26:20.108Z,5.38
2019-01-28T15:27:30.200Z,5.28
2019-01-28T15:28:40.143Z,5.2
2019-01-28T15:29:50.083Z,5.22
2019-01-28T15:31:00.092Z,5.15
2019-01-28T15:32:10.162Z,5.16
2019-01-28T15:33:20.106Z,5.04
2019-01-28T15:34:30.503Z,5